Hoag Corners, New York
Current Conditions -  °F | °C
As of 11:17 AM on Sunday 21 Dec 2014 (Local Time) from KPSF Reporting Station
Light Snow Light Snow  
Wind Chill: 23°   Ceiling: 2700
Heat Index: 29°   Visibility: 3mi
Dew Point: 25°   Wind: 6mph
Humidity: 85%   Direction: 330°NNW
Pressure: 30.25"   Gusts: NA
Location:  42.5337°N, 73.5023°W
Report Text: KPSF 211617Z AUTO 33005KT 3SM -SN BR FEW009 BKN027 OVC032 M02/M04 A3025 RMK AO2 P0000 T10171039
Loading
Personal Weather Stations






























Interactive Weather Map New forecast layout! Learn more

10-Day Weather Forecast

Advertisements
Track Severe Weather on mobile